sensor_id;sensor_type;location;lat;lon;timestamp;pressure;altitude;pressure_sealevel;temperature;humidity
6387;BME280;3226;42.162;24.756;2023-03-16T00:00:05;98576.34;;;9.12;59.40
6387;BME280;3226;42.162;24.756;2023-03-16T00:02:41;98573.06;;;9.10;59.70
6387;BME280;3226;42.162;24.756;2023-03-16T00:05:11;98573.56;;;9.14;59.29
6387;BME280;3226;42.162;24.756;2023-03-16T00:07:39;98572.75;;;9.13;59.99
6387;BME280;3226;42.162;24.756;2023-03-16T00:10:09;98557.72;;;8.97;60.42
6387;BME280;3226;42.162;24.756;2023-03-16T00:12:38;98567.16;;;9.08;60.94
6387;BME280;3226;42.162;24.756;2023-03-16T00:15:09;98574.94;;;9.18;61.39
6387;BME280;3226;42.162;24.756;2023-03-16T00:17:38;98566.91;;;9.01;61.74
6387;BME280;3226;42.162;24.756;2023-03-16T00:20:09;98577.31;;;9.11;61.98
6387;BME280;3226;42.162;24.756;2023-03-16T00:22:37;98575.31;;;8.95;62.76
6387;BME280;3226;42.162;24.756;2023-03-16T00:25:06;98569.50;;;9.01;62.70
6387;BME280;3226;42.162;24.756;2023-03-16T00:27:34;98578.78;;;9.14;62.40
6387;BME280;3226;42.162;24.756;2023-03-16T00:30:03;98585.19;;;9.01;63.09
6387;BME280;3226;42.162;24.756;2023-03-16T00:32:33;98569.63;;;9.00;63.58
6387;BME280;3226;42.162;24.756;2023-03-16T00:35:02;98578.97;;;9.12;63.20
6387;BME280;3226;42.162;24.756;2023-03-16T00:37:36;98581.56;;;9.12;64.29
6387;BME280;3226;42.162;24.756;2023-03-16T00:40:07;98576.84;;;9.16;64.70
6387;BME280;3226;42.162;24.756;2023-03-16T00:42:37;98583.13;;;9.05;64.91
6387;BME280;3226;42.162;24.756;2023-03-16T00:45:06;98581.69;;;9.10;64.96
6387;BME280;3226;42.162;24.756;2023-03-16T00:47:34;98588.19;;;9.06;65.25
6387;BME280;3226;42.162;24.756;2023-03-16T00:50:02;98584.59;;;9.07;65.78
6387;BME280;3226;42.162;24.756;2023-03-16T00:52:31;98586.53;;;9.05;66.28
6387;BME280;3226;42.162;24.756;2023-03-16T00:55:02;98592.47;;;8.97;66.89
6387;BME280;3226;42.162;24.756;2023-03-16T00:57:30;98593.72;;;8.93;67.20
6387;BME280;3226;42.162;24.756;2023-03-16T00:59:58;98593.97;;;9.00;66.95
6387;BME280;3226;42.162;24.756;2023-03-16T01:02:31;98601.69;;;9.02;67.38
6387;BME280;3226;42.162;24.756;2023-03-16T01:05:02;98600.97;;;9.00;67.27
6387;BME280;3226;42.162;24.756;2023-03-16T01:07:31;98612.94;;;9.02;67.82
6387;BME280;3226;42.162;24.756;2023-03-16T01:10:03;98614.59;;;9.03;68.30
6387;BME280;3226;42.162;24.756;2023-03-16T01:12:32;98609.34;;;9.03;69.03
6387;BME280;3226;42.162;24.756;2023-03-16T01:15:00;98607.69;;;9.12;69.03
6387;BME280;3226;42.162;24.756;2023-03-16T01:17:28;98610.31;;;9.12;69.27
6387;BME280;3226;42.162;24.756;2023-03-16T01:20:00;98586.63;;;8.76;70.53
6387;BME280;3226;42.162;24.756;2023-03-16T01:22:30;98616.69;;;8.90;70.78
6387;BME280;3226;42.162;24.756;2023-03-16T01:24:59;98602.53;;;8.82;71.37
6387;BME280;3226;42.162;24.756;2023-03-16T01:27:28;98613.25;;;8.89;71.26
6387;BME280;3226;42.162;24.756;2023-03-16T01:29:56;98620.78;;;8.92;71.18
6387;BME280;3226;42.162;24.756;2023-03-16T01:32:24;98621.53;;;8.85;71.59
6387;BME280;3226;42.162;24.756;2023-03-16T01:34:52;98620.13;;;8.90;71.69
6387;BME280;3226;42.162;24.756;2023-03-16T01:37:20;98629.34;;;8.85;71.11
6387;BME280;3226;42.162;24.756;2023-03-16T01:39:48;98625.78;;;8.76;71.04
6387;BME280;3226;42.162;24.756;2023-03-16T01:42:16;98631.03;;;8.56;70.80
6387;BME280;3226;42.162;24.756;2023-03-16T01:44:54;98625.13;;;8.54;71.12
6387;BME280;3226;42.162;24.756;2023-03-16T01:47:22;98620.72;;;8.45;71.40
6387;BME280;3226;42.162;24.756;2023-03-16T01:49:51;98626.31;;;8.30;71.42
6387;BME280;3226;42.162;24.756;2023-03-16T01:52:23;98628.53;;;8.35;71.37
6387;BME280;3226;42.162;24.756;2023-03-16T01:54:55;98635.00;;;8.31;70.52
6387;BME280;3226;42.162;24.756;2023-03-16T01:57:26;98636.63;;;8.22;70.16
6387;BME280;3226;42.162;24.756;2023-03-16T02:00:00;98639.78;;;8.06;70.74
6387;BME280;3226;42.162;24.756;2023-03-16T02:02:48;98618.22;;;7.94;70.31
6387;BME280;3226;42.162;24.756;2023-03-16T02:05:22;98645.00;;;8.16;69.42
6387;BME280;3226;42.162;24.756;2023-03-16T02:07:51;98646.22;;;8.02;69.57
6387;BME280;3226;42.162;24.756;2023-03-16T02:10:27;98652.28;;;8.02;69.28
6387;BME280;3226;42.162;24.756;2023-03-16T02:12:56;98651.84;;;7.87;69.43
6387;BME280;3226;42.162;24.756;2023-03-16T02:15:25;98645.31;;;7.72;69.56
6387;BME280;3226;42.162;24.756;2023-03-16T02:17:55;98648.63;;;7.74;69.59
6387;BME280;3226;42.162;24.756;2023-03-16T02:20:33;98674.34;;;7.88;69.17
6387;BME280;3226;42.162;24.756;2023-03-16T02:23:06;98672.50;;;7.69;69.91
6387;BME280;3226;42.162;24.756;2023-03-16T02:25:39;98673.34;;;7.79;69.44
6387;BME280;3226;42.162;24.756;2023-03-16T02:28:14;98676.94;;;7.88;69.16
6387;BME280;3226;42.162;24.756;2023-03-16T02:30:47;98678.97;;;7.85;68.84
6387;BME280;3226;42.162;24.756;2023-03-16T02:33:16;98683.94;;;7.57;69.74
6387;BME280;3226;42.162;24.756;2023-03-16T02:35:46;98681.53;;;7.65;69.88
6387;BME280;3226;42.162;24.756;2023-03-16T02:38:15;98685.94;;;7.74;69.53
6387;BME280;3226;42.162;24.756;2023-03-16T02:40:44;98684.00;;;7.66;69.78
6387;BME280;3226;42.162;24.756;2023-03-16T02:43:15;98687.44;;;7.67;69.20
6387;BME280;3226;42.162;24.756;2023-03-16T02:45:50;98683.69;;;7.60;69.31
6387;BME280;3226;42.162;24.756;2023-03-16T02:48:21;98692.47;;;7.59;69.47
6387;BME280;3226;42.162;24.756;2023-03-16T02:50:51;98692.34;;;7.60;68.88
6387;BME280;3226;42.162;24.756;2023-03-16T02:53:20;98691.22;;;7.53;69.43
6387;BME280;3226;42.162;24.756;2023-03-16T02:55:48;98676.19;;;7.35;69.39
6387;BME280;3226;42.162;24.756;2023-03-16T02:58:16;98702.59;;;7.52;69.46
6387;BME280;3226;42.162;24.756;2023-03-16T03:00:44;98705.31;;;7.50;69.05
6387;BME280;3226;42.162;24.756;2023-03-16T03:03:14;98703.13;;;7.46;69.41
6387;BME280;3226;42.162;24.756;2023-03-16T03:05:42;98720.53;;;7.45;68.53
6387;BME280;3226;42.162;24.756;2023-03-16T03:08:10;98719.66;;;7.35;68.94
6387;BME280;3226;42.162;24.756;2023-03-16T03:10:38;98719.41;;;7.38;68.98
6387;BME280;3226;42.162;24.756;2023-03-16T03:13:07;98728.00;;;7.29;68.91
6387;BME280;3226;42.162;24.756;2023-03-16T03:15:35;98729.66;;;7.40;67.90
6387;BME280;3226;42.162;24.756;2023-03-16T03:18:03;98730.34;;;7.11;68.25
6387;BME280;3226;42.162;24.756;2023-03-16T03:20:32;98729.25;;;7.13;68.68
6387;BME280;3226;42.162;24.756;2023-03-16T03:23:00;98730.09;;;7.14;68.45
6387;BME280;3226;42.162;24.756;2023-03-16T03:25:28;98715.78;;;7.08;68.52
6387;BME280;3226;42.162;24.756;2023-03-16T03:28:01;98743.28;;;7.22;68.13
6387;BME280;3226;42.162;24.756;2023-03-16T03:30:31;98749.31;;;7.22;67.84
6387;BME280;3226;42.162;24.756;2023-03-16T03:32:59;98748.38;;;7.02;68.55
6387;BME280;3226;42.162;24.756;2023-03-16T03:35:27;98752.34;;;6.85;69.05
6387;BME280;3226;42.162;24.756;2023-03-16T03:37:56;98743.72;;;6.85;68.61
6387;BME280;3226;42.162;24.756;2023-03-16T03:40:24;98751.19;;;6.78;69.66
6387;BME280;3226;42.162;24.756;2023-03-16T03:42:53;98759.19;;;6.86;69.45
6387;BME280;3226;42.162;24.756;2023-03-16T03:45:21;98762.75;;;6.85;69.29
6387;BME280;3226;42.162;24.756;2023-03-16T03:47:48;98764.34;;;6.76;69.29
6387;BME280;3226;42.162;24.756;2023-03-16T03:50:17;98762.09;;;6.72;69.93
6387;BME280;3226;42.162;24.756;2023-03-16T03:52:45;98769.91;;;6.72;69.86
6387;BME280;3226;42.162;24.756;2023-03-16T03:55:14;98777.22;;;6.78;69.66
6387;BME280;3226;42.162;24.756;2023-03-16T03:57:42;98771.13;;;6.68;69.78
6387;BME280;3226;42.162;24.756;2023-03-16T04:00:11;98771.81;;;6.70;70.13
6387;BME280;3226;42.162;24.756;2023-03-16T04:02:39;98768.31;;;6.59;70.27
6387;BME280;3226;42.162;24.756;2023-03-16T04:05:08;98765.47;;;6.62;70.04
6387;BME280;3226;42.162;24.756;2023-03-16T04:07:36;98772.63;;;6.70;69.51
6387;BME280;3226;42.162;24.756;2023-03-16T04:10:05;98767.47;;;6.59;70.07
6387;BME280;3226;42.162;24.756;2023-03-16T04:12:34;98765.91;;;6.68;69.90
6387;BME280;3226;42.162;24.756;2023-03-16T04:15:03;98776.19;;;6.69;69.66
6387;BME280;3226;42.162;24.756;2023-03-16T04:17:31;98774.53;;;6.68;69.39
6387;BME280;3226;42.162;24.756;2023-03-16T04:19:59;98780.56;;;6.69;69.14
6387;BME280;3226;42.162;24.756;2023-03-16T04:22:28;98792.19;;;6.64;68.86
6387;BME280;3226;42.162;24.756;2023-03-16T04:24:57;98793.38;;;6.49;68.84
6387;BME280;3226;42.162;24.756;2023-03-16T04:27:24;98797.63;;;6.61;68.81
6387;BME280;3226;42.162;24.756;2023-03-16T04:29:54;98805.28;;;6.63;68.63
6387;BME280;3226;42.162;24.756;2023-03-16T04:32:25;98812.75;;;6.68;68.68
6387;BME280;3226;42.162;24.756;2023-03-16T04:34:53;98812.69;;;6.46;68.87
6387;BME280;3226;42.162;24.756;2023-03-16T04:37:22;98816.09;;;6.47;69.02
6387;BME280;3226;42.162;24.756;2023-03-16T04:39:50;98818.94;;;6.44;68.85
6387;BME280;3226;42.162;24.756;2023-03-16T04:42:18;98816.22;;;6.34;69.45
6387;BME280;3226;42.162;24.756;2023-03-16T04:44:45;98819.63;;;6.46;68.92
6387;BME280;3226;42.162;24.756;2023-03-16T04:47:15;98810.31;;;6.32;68.51
6387;BME280;3226;42.162;24.756;2023-03-16T04:49:44;98823.44;;;6.42;68.44
6387;BME280;3226;42.162;24.756;2023-03-16T04:52:12;98834.56;;;6.32;68.34
6387;BME280;3226;42.162;24.756;2023-03-16T04:54:40;98834.34;;;6.01;69.20
6387;BME280;3226;42.162;24.756;2023-03-16T04:57:08;98842.97;;;6.13;68.79
6387;BME280;3226;42.162;24.756;2023-03-16T04:59:36;98841.88;;;6.16;68.34
6387;BME280;3226;42.162;24.756;2023-03-16T05:02:04;98836.59;;;6.06;68.25
6387;BME280;3226;42.162;24.756;2023-03-16T05:04:33;98838.94;;;6.20;67.92
6387;BME280;3226;42.162;24.756;2023-03-16T05:07:01;98856.56;;;6.28;67.80
6387;BME280;3226;42.162;24.756;2023-03-16T05:09:29;98845.16;;;5.95;67.68
6387;BME280;3226;42.162;24.756;2023-03-16T05:11:57;98862.56;;;6.17;67.02
6387;BME280;3226;42.162;24.756;2023-03-16T05:14:25;98868.59;;;6.18;66.61
6387;BME280;3226;42.162;24.756;2023-03-16T05:16:53;98875.47;;;6.19;66.68
6387;BME280;3226;42.162;24.756;2023-03-16T05:19:21;98886.78;;;6.06;66.87
6387;BME280;3226;42.162;24.756;2023-03-16T05:21:50;98886.22;;;6.14;66.50
6387;BME280;3226;42.162;24.756;2023-03-16T05:24:18;98887.41;;;6.10;66.70
6387;BME280;3226;42.162;24.756;2023-03-16T05:26:46;98899.22;;;6.14;65.77
6387;BME280;3226;42.162;24.756;2023-03-16T05:29:14;98903.22;;;6.18;65.51
6387;BME280;3226;42.162;24.756;2023-03-16T05:31:44;98903.34;;;6.17;65.27
6387;BME280;3226;42.162;24.756;2023-03-16T05:34:13;98905.47;;;6.12;65.14
6387;BME280;3226;42.162;24.756;2023-03-16T05:36:41;98908.31;;;6.20;64.64
6387;BME280;3226;42.162;24.756;2023-03-16T05:39:12;98914.94;;;6.24;65.18
6387;BME280;3226;42.162;24.756;2023-03-16T05:41:40;98915.66;;;6.26;64.70
6387;BME280;3226;42.162;24.756;2023-03-16T05:44:08;98916.13;;;6.20;64.80
6387;BME280;3226;42.162;24.756;2023-03-16T05:46:36;98915.38;;;6.06;65.00
6387;BME280;3226;42.162;24.756;2023-03-16T05:49:04;98919.16;;;6.14;64.58
6387;BME280;3226;42.162;24.756;2023-03-16T05:51:32;98919.31;;;6.12;64.40
6387;BME280;3226;42.162;24.756;2023-03-16T05:54:00;98916.31;;;6.17;64.30
6387;BME280;3226;42.162;24.756;2023-03-16T05:56:29;98924.13;;;6.17;63.78
6387;BME280;3226;42.162;24.756;2023-03-16T05:58:58;98926.53;;;6.20;63.64
6387;BME280;3226;42.162;24.756;2023-03-16T06:01:26;98936.06;;;6.08;63.98
6387;BME280;3226;42.162;24.756;2023-03-16T06:03:54;98888.13;;;5.76;63.84
6387;BME280;3226;42.162;24.756;2023-03-16T06:06:22;98940.25;;;5.98;64.72
6387;BME280;3226;42.162;24.756;2023-03-16T06:08:50;98937.34;;;6.02;64.22
6387;BME280;3226;42.162;24.756;2023-03-16T06:11:18;98947.53;;;6.17;63.97
6387;BME280;3226;42.162;24.756;2023-03-16T06:13:47;98950.88;;;6.30;63.30
6387;BME280;3226;42.162;24.756;2023-03-16T06:16:15;98951.69;;;6.31;63.07
6387;BME280;3226;42.162;24.756;2023-03-16T06:18:43;98956.31;;;6.27;63.59
6387;BME280;3226;42.162;24.756;2023-03-16T06:21:11;98957.25;;;6.38;62.90
6387;BME280;3226;42.162;24.756;2023-03-16T06:23:39;98961.75;;;6.47;62.71
6387;BME280;3226;42.162;24.756;2023-03-16T06:26:07;98968.16;;;6.54;62.24
6387;BME280;3226;42.162;24.756;2023-03-16T06:28:35;98962.81;;;6.56;62.65
6387;BME280;3226;42.162;24.756;2023-03-16T06:31:05;98967.31;;;6.42;62.21
6387;BME280;3226;42.162;24.756;2023-03-16T06:33:33;98965.91;;;6.38;62.14
6387;BME280;3226;42.162;24.756;2023-03-16T06:36:01;98977.72;;;6.42;61.87
6387;BME280;3226;42.162;24.756;2023-03-16T06:38:29;98984.69;;;6.42;61.51
6387;BME280;3226;42.162;24.756;2023-03-16T06:40:56;98986.25;;;6.44;62.19
6387;BME280;3226;42.162;24.756;2023-03-16T06:43:25;98983.97;;;6.51;61.78
6387;BME280;3226;42.162;24.756;2023-03-16T06:45:52;98992.50;;;6.42;61.66
6387;BME280;3226;42.162;24.756;2023-03-16T06:48:22;98991.69;;;6.41;61.20
6387;BME280;3226;42.162;24.756;2023-03-16T06:50:50;98995.69;;;6.45;61.57
6387;BME280;3226;42.162;24.756;2023-03-16T06:53:18;99009.88;;;6.41;61.66
6387;BME280;3226;42.162;24.756;2023-03-16T06:55:46;98984.44;;;6.33;61.19
6387;BME280;3226;42.162;24.756;2023-03-16T06:58:14;99008.56;;;6.35;61.35
6387;BME280;3226;42.162;24.756;2023-03-16T07:00:43;99014.00;;;6.44;61.25
6387;BME280;3226;42.162;24.756;2023-03-16T07:03:11;99017.44;;;6.44;61.23
6387;BME280;3226;42.162;24.756;2023-03-16T07:05:40;99023.47;;;6.33;61.23
6387;BME280;3226;42.162;24.756;2023-03-16T07:08:09;99023.47;;;6.45;61.37
6387;BME280;3226;42.162;24.756;2023-03-16T07:10:37;99010.69;;;6.42;60.94
6387;BME280;3226;42.162;24.756;2023-03-16T07:13:05;99028.56;;;6.58;60.91
6387;BME280;3226;42.162;24.756;2023-03-16T07:15:33;99036.16;;;6.61;60.67
6387;BME280;3226;42.162;24.756;2023-03-16T07:18:01;99033.69;;;6.59;60.80
6387;BME280;3226;42.162;24.756;2023-03-16T07:20:29;99032.97;;;6.69;60.58
6387;BME280;3226;42.162;24.756;2023-03-16T07:23:00;99038.88;;;6.59;60.19
6387;BME280;3226;42.162;24.756;2023-03-16T07:25:27;99038.66;;;6.62;60.18
6387;BME280;3226;42.162;24.756;2023-03-16T07:27:55;99016.28;;;6.48;60.70
6387;BME280;3226;42.162;24.756;2023-03-16T07:30:23;99043.75;;;6.75;60.42
6387;BME280;3226;42.162;24.756;2023-03-16T07:32:52;99041.69;;;6.45;60.47
6387;BME280;3226;42.162;24.756;2023-03-16T07:35:20;99025.81;;;6.36;60.52
6387;BME280;3226;42.162;24.756;2023-03-16T07:37:49;99041.59;;;6.58;60.89
6387;BME280;3226;42.162;24.756;2023-03-16T07:40:18;99047.13;;;6.53;60.64
6387;BME280;3226;42.162;24.756;2023-03-16T07:42:46;99044.75;;;6.50;60.87
6387;BME280;3226;42.162;24.756;2023-03-16T07:45:14;99047.97;;;6.54;60.71
6387;BME280;3226;42.162;24.756;2023-03-16T07:47:43;99031.06;;;6.71;60.42
6387;BME280;3226;42.162;24.756;2023-03-16T07:50:11;99049.75;;;6.87;60.33
6387;BME280;3226;42.162;24.756;2023-03-16T07:52:41;99039.34;;;6.76;60.25
6387;BME280;3226;42.162;24.756;2023-03-16T07:55:09;99050.59;;;6.88;60.40
6387;BME280;3226;42.162;24.756;2023-03-16T07:57:39;99036.53;;;6.90;60.39
6387;BME280;3226;42.162;24.756;2023-03-16T08:00:09;99038.75;;;7.06;60.23
6387;BME280;3226;42.162;24.756;2023-03-16T08:02:39;99043.72;;;7.21;60.19
6387;BME280;3226;42.162;24.756;2023-03-16T08:05:08;99042.88;;;7.20;59.05
6387;BME280;3226;42.162;24.756;2023-03-16T08:07:36;99043.84;;;7.19;59.16
6387;BME280;3226;42.162;24.756;2023-03-16T08:10:05;99049.31;;;7.28;58.05
6387;BME280;3226;42.162;24.756;2023-03-16T08:12:33;99035.69;;;7.24;57.83
6387;BME280;3226;42.162;24.756;2023-03-16T08:15:03;99052.22;;;7.46;57.43
6387;BME280;3226;42.162;24.756;2023-03-16T08:17:31;99053.50;;;7.51;57.24
6387;BME280;3226;42.162;24.756;2023-03-16T08:20:00;99055.59;;;7.69;56.79
6387;BME280;3226;42.162;24.756;2023-03-16T08:22:28;99059.03;;;7.70;56.67
6387;BME280;3226;42.162;24.756;2023-03-16T08:24:56;99065.19;;;7.80;56.60
6387;BME280;3226;42.162;24.756;2023-03-16T08:27:24;99069.34;;;7.71;56.46
6387;BME280;3226;42.162;24.756;2023-03-16T08:29:54;99078.47;;;7.65;56.51
6387;BME280;3226;42.162;24.756;2023-03-16T08:32:24;99068.72;;;7.79;56.44
6387;BME280;3226;42.162;24.756;2023-03-16T08:34:52;99078.72;;;7.95;55.75
6387;BME280;3226;42.162;24.756;2023-03-16T08:37:20;99077.06;;;7.94;55.66
6387;BME280;3226;42.162;24.756;2023-03-16T08:39:49;99077.41;;;8.01;55.32
6387;BME280;3226;42.162;24.756;2023-03-16T08:42:19;99085.84;;;7.93;55.27
6387;BME280;3226;42.162;24.756;2023-03-16T08:44:48;99091.56;;;7.87;56.23
6387;BME280;3226;42.162;24.756;2023-03-16T08:47:16;99087.03;;;8.00;55.87
6387;BME280;3226;42.162;24.756;2023-03-16T08:49:46;99085.06;;;8.14;54.55
6387;BME280;3226;42.162;24.756;2023-03-16T08:52:14;99088.97;;;8.19;55.26
6387;BME280;3226;42.162;24.756;2023-03-16T08:54:42;99096.22;;;8.37;53.90
6387;BME280;3226;42.162;24.756;2023-03-16T08:57:27;99094.84;;;8.00;55.06
6387;BME280;3226;42.162;24.756;2023-03-16T08:59:55;99091.44;;;8.21;55.18
6387;BME280;3226;42.162;24.756;2023-03-16T09:02:23;99101.84;;;8.32;54.34
6387;BME280;3226;42.162;24.756;2023-03-16T09:04:52;99091.56;;;8.52;54.21
6387;BME280;3226;42.162;24.756;2023-03-16T09:07:21;99090.84;;;8.50;53.82
6387;BME280;3226;42.162;24.756;2023-03-16T09:09:49;99091.09;;;8.68;53.33
6387;BME280;3226;42.162;24.756;2023-03-16T09:12:18;99095.81;;;8.74;53.08
6387;BME280;3226;42.162;24.756;2023-03-16T09:14:46;99097.38;;;9.08;52.62
6387;BME280;3226;42.162;24.756;2023-03-16T09:17:14;99074.03;;;9.16;52.17
6387;BME280;3226;42.162;24.756;2023-03-16T09:19:42;99094.66;;;9.19;51.56
6387;BME280;3226;42.162;24.756;2023-03-16T09:22:22;99101.78;;;9.17;51.63
6387;BME280;3226;42.162;24.756;2023-03-16T09:24:50;99094.69;;;8.98;51.53
6387;BME280;3226;42.162;24.756;2023-03-16T09:27:18;99093.31;;;9.25;51.38
6387;BME280;3226;42.162;24.756;2023-03-16T09:29:48;99079.50;;;9.13;50.77
6387;BME280;3226;42.162;24.756;2023-03-16T09:32:16;99090.13;;;9.21;51.04
6387;BME280;3226;42.162;24.756;2023-03-16T09:34:44;99087.50;;;9.21;51.69
6387;BME280;3226;42.162;24.756;2023-03-16T09:37:12;99099.69;;;9.52;50.84
6387;BME280;3226;42.162;24.756;2023-03-16T09:39:43;99101.44;;;9.82;49.74
6387;BME280;3226;42.162;24.756;2023-03-16T09:42:16;99100.19;;;9.87;50.10
6387;BME280;3226;42.162;24.756;2023-03-16T09:44:57;99097.34;;;10.09;48.96
6387;BME280;3226;42.162;24.756;2023-03-16T09:47:27;99102.28;;;10.12;48.49
6387;BME280;3226;42.162;24.756;2023-03-16T09:49:59;99102.69;;;10.18;48.62
6387;BME280;3226;42.162;24.756;2023-03-16T09:52:33;99112.00;;;9.71;48.44
6387;BME280;3226;42.162;24.756;2023-03-16T09:55:09;99108.34;;;9.93;48.32
6387;BME280;3226;42.162;24.756;2023-03-16T09:57:41;99109.97;;;9.84;48.08
6387;BME280;3226;42.162;24.756;2023-03-16T10:00:15;99108.88;;;10.07;48.35
6387;BME280;3226;42.162;24.756;2023-03-16T10:02:54;99112.03;;;10.20;48.20
6387;BME280;3226;42.162;24.756;2023-03-16T10:05:23;99105.28;;;9.88;48.10
6387;BME280;3226;42.162;24.756;2023-03-16T10:08:03;99112.03;;;10.20;48.25
6387;BME280;3226;42.162;24.756;2023-03-16T10:10:52;99104.88;;;9.73;48.48
6387;BME280;3226;42.162;24.756;2023-03-16T10:13:29;99114.13;;;10.07;47.89
6387;BME280;3226;42.162;24.756;2023-03-16T10:16:03;99112.59;;;10.34;47.31
6387;BME280;3226;42.162;24.756;2023-03-16T10:18:38;99113.84;;;10.49;47.12
6387;BME280;3226;42.162;24.756;2023-03-16T10:21:11;99103.38;;;10.69;46.97
6387;BME280;3226;42.162;24.756;2023-03-16T10:23:40;99104.03;;;10.81;46.85
6387;BME280;3226;42.162;24.756;2023-03-16T10:26:13;99099.91;;;10.68;46.71
6387;BME280;3226;42.162;24.756;2023-03-16T10:28:42;99114.75;;;10.88;45.80
6387;BME280;3226;42.162;24.756;2023-03-16T10:31:12;99102.97;;;11.11;44.90
6387;BME280;3226;42.162;24.756;2023-03-16T10:33:40;99119.81;;;11.37;44.97
6387;BME280;3226;42.162;24.756;2023-03-16T10:36:13;99112.78;;;11.09;45.09
6387;BME280;3226;42.162;24.756;2023-03-16T10:38:43;99107.88;;;11.24;44.90
6387;BME280;3226;42.162;24.756;2023-03-16T10:41:22;99110.13;;;11.19;44.63
6387;BME280;3226;42.162;24.756;2023-03-16T10:43:53;99085.94;;;11.25;45.28
6387;BME280;3226;42.162;24.756;2023-03-16T10:46:24;99112.56;;;11.59;44.43
6387;BME280;3226;42.162;24.756;2023-03-16T10:48:54;99105.09;;;11.26;45.02
6387;BME280;3226;42.162;24.756;2023-03-16T10:51:28;99101.56;;;11.45;44.23
6387;BME280;3226;42.162;24.756;2023-03-16T10:54:04;99101.59;;;11.63;43.81
6387;BME280;3226;42.162;24.756;2023-03-16T10:56:37;99104.38;;;11.62;44.30
6387;BME280;3226;42.162;24.756;2023-03-16T10:59:13;99089.47;;;11.80;43.37
6387;BME280;3226;42.162;24.756;2023-03-16T11:01:47;99100.50;;;11.66;43.37
6387;BME280;3226;42.162;24.756;2023-03-16T11:04:18;99090.94;;;11.47;44.00
6387;BME280;3226;42.162;24.756;2023-03-16T11:06:52;99103.34;;;10.79;44.95
6387;BME280;3226;42.162;24.756;2023-03-16T11:09:23;99088.75;;;10.66;45.47
6387;BME280;3226;42.162;24.756;2023-03-16T11:11:53;99097.25;;;10.88;45.37
6387;BME280;3226;42.162;24.756;2023-03-16T11:14:24;99104.22;;;11.07;45.61
6387;BME280;3226;42.162;24.756;2023-03-16T11:16:59;99099.13;;;10.96;45.13
6387;BME280;3226;42.162;24.756;2023-03-16T11:19:31;99101.44;;;10.71;45.50
6387;BME280;3226;42.162;24.756;2023-03-16T11:22:04;99098.44;;;10.56;45.88
6387;BME280;3226;42.162;24.756;2023-03-16T11:24:42;99090.38;;;10.87;45.67
6387;BME280;3226;42.162;24.756;2023-03-16T11:27:21;99103.09;;;11.10;44.85
6387;BME280;3226;42.162;24.756;2023-03-16T11:29:58;99085.63;;;11.01;45.32
6387;BME280;3226;42.162;24.756;2023-03-16T11:32:33;99094.13;;;11.12;45.24
6387;BME280;3226;42.162;24.756;2023-03-16T11:35:11;99100.25;;;11.03;45.90
6387;BME280;3226;42.162;24.756;2023-03-16T11:37:49;99099.41;;;11.03;45.03
6387;BME280;3226;42.162;24.756;2023-03-16T11:40:30;99094.72;;;11.06;45.44
6387;BME280;3226;42.162;24.756;2023-03-16T11:43:08;99088.63;;;10.68;45.75
6387;BME280;3226;42.162;24.756;2023-03-16T11:45:43;99093.59;;;10.51;45.81
6387;BME280;3226;42.162;24.756;2023-03-16T11:48:35;99089.03;;;10.53;46.03
6387;BME280;3226;42.162;24.756;2023-03-16T11:51:08;99099.91;;;10.78;45.65
6387;BME280;3226;42.162;24.756;2023-03-16T11:53:47;99086.97;;;10.67;46.11
6387;BME280;3226;42.162;24.756;2023-03-16T11:56:32;99094.66;;;10.68;45.39
6387;BME280;3226;42.162;24.756;2023-03-16T11:59:14;99103.09;;;10.62;46.09
6387;BME280;3226;42.162;24.756;2023-03-16T12:01:55;99100.16;;;10.85;45.88
6387;BME280;3226;42.162;24.756;2023-03-16T12:04:45;99098.75;;;10.91;45.47
6387;BME280;3226;42.162;24.756;2023-03-16T12:07:25;99099.97;;;11.06;44.81
6387;BME280;3226;42.162;24.756;2023-03-16T12:10:03;99104.19;;;11.17;44.59
6387;BME280;3226;42.162;24.756;2023-03-16T12:12:47;99104.06;;;11.09;44.81
6387;BME280;3226;42.162;24.756;2023-03-16T12:15:33;99112.34;;;11.14;45.01
6387;BME280;3226;42.162;24.756;2023-03-16T12:18:14;99090.06;;;11.00;45.34
6387;BME280;3226;42.162;24.756;2023-03-16T12:20:49;99111.09;;;11.18;44.61
6387;BME280;3226;42.162;24.756;2023-03-16T12:23:20;99117.41;;;11.25;44.45
6387;BME280;3226;42.162;24.756;2023-03-16T12:25:53;99108.75;;;11.15;44.71
6387;BME280;3226;42.162;24.756;2023-03-16T12:28:25;99119.94;;;11.07;44.45
6387;BME280;3226;42.162;24.756;2023-03-16T12:31:06;99113.13;;;10.77;44.80
6387;BME280;3226;42.162;24.756;2023-03-16T12:33:47;99092.91;;;10.59;45.09
6387;BME280;3226;42.162;24.756;2023-03-16T12:36:41;99119.47;;;10.84;45.40
6387;BME280;3226;42.162;24.756;2023-03-16T12:39:21;99113.75;;;10.98;44.69
6387;BME280;3226;42.162;24.756;2023-03-16T12:41:59;99123.16;;;11.01;44.55
6387;BME280;3226;42.162;24.756;2023-03-16T12:44:34;99124.03;;;10.82;45.42
6387;BME280;3226;42.162;24.756;2023-03-16T12:47:11;99123.84;;;10.93;45.32
6387;BME280;3226;42.162;24.756;2023-03-16T12:49:42;99115.38;;;10.62;45.65
6387;BME280;3226;42.162;24.756;2023-03-16T12:52:11;99121.81;;;10.67;45.52
6387;BME280;3226;42.162;24.756;2023-03-16T12:54:48;99129.16;;;10.64;45.85
6387;BME280;3226;42.162;24.756;2023-03-16T12:57:19;99135.75;;;10.58;46.29
6387;BME280;3226;42.162;24.756;2023-03-16T12:59:56;99114.38;;;10.33;46.50
6387;BME280;3226;42.162;24.756;2023-03-16T13:02:29;99136.56;;;10.59;45.75
6387;BME280;3226;42.162;24.756;2023-03-16T13:05:00;99135.06;;;10.66;45.99
6387;BME280;3226;42.162;24.756;2023-03-16T13:07:29;99140.44;;;10.64;45.76
6387;BME280;3226;42.162;24.756;2023-03-16T13:10:02;99149.13;;;10.65;46.00
6387;BME280;3226;42.162;24.756;2023-03-16T13:12:35;99142.13;;;10.46;46.13
6387;BME280;3226;42.162;24.756;2023-03-16T13:15:23;99145.84;;;10.43;45.87
6387;BME280;3226;42.162;24.756;2023-03-16T13:18:05;99145.09;;;10.31;46.34
6387;BME280;3226;42.162;24.756;2023-03-16T13:20:53;99148.13;;;10.36;46.17
6387;BME280;3226;42.162;24.756;2023-03-16T13:23:25;99159.03;;;10.32;46.27
6387;BME280;3226;42.162;24.756;2023-03-16T13:26:03;99159.84;;;10.12;46.49
6387;BME280;3226;42.162;24.756;2023-03-16T13:28:35;99162.06;;;10.27;46.55
6387;BME280;3226;42.162;24.756;2023-03-16T13:31:05;99166.72;;;10.33;46.35
6387;BME280;3226;42.162;24.756;2023-03-16T13:33:47;99170.13;;;10.04;47.73
6387;BME280;3226;42.162;24.756;2023-03-16T13:36:17;99172.09;;;10.12;47.12
6387;BME280;3226;42.162;24.756;2023-03-16T13:38:54;99172.25;;;10.10;47.25